Free Trial

Liberty Media Corporation - Liberty Formula One Series A (FWONA) Institutional Ownership

Liberty Media Corporation - Liberty Formula One Series A logo
$80.31 -0.89 (-1.10%)
Closing price 04:00 PM Eastern
Extended Trading
$81.64 +1.33 (+1.66%)
As of 06:01 PM Eastern
Extended trading is trading that happens on electronic markets outside of regular trading hours. This is a fair market value extended hours price provided by Massive. Learn more.

Institutional Ownership Changes (13F Filings) for Liberty Media Corporation - Liberty Formula One Series A (NASDAQ:FWONA)

Current
Institutional Ownership
Percentage
8.38%
Number of
Institutional Buyers
(last 12 months)
113
Total
Institutional Inflows
(last 12 months)
$382.78M
Number of
Institutional Sellers
(last 12 months)
70
Total
Institutional Outflows
(last 12 months)
$2.26B
Get FWONA Insider Trade Alerts

Want to know when executives and insiders are buying or selling Liberty Media Corporation - Liberty Formula One Series A stock? Sign up for InsiderTrades.com's daily newsletter to get the latest insider transactions delivered to your inbox daily.

SMS is currently available in Australia, Belgium, Canada, France, Germany, Ireland, Italy, New Zealand, the Netherlands, Singapore, South Africa, Spain, Switzerland, the United Kingdom, and the United States. By entering your phone number and clicking the sign-up button, you agree to receive periodic text messages from MarketBeat at the phone number you submitted, including texts that may be sent using an automatic telephone dialing system. Message and data rates may apply. Message frequency will vary. Messages will consist of stock alerts, news stories, and partner advertisements/offers. Consent is not a condition of the purchase of any goods or services. Text HELP for help/customer support. Unsubscribe at any time by replying "STOP" to any text message that you receive from MarketBeat or by visiting our mailing preferences page. Read our full terms of service and privacy policy.
Skip Chart & View Institutional Buying and Selling Data

FWONA Institutional Buying and Selling by Quarter

Liberty Media Corporation - Liberty Formula One Series A Major Shareholders & Ownership History

Reporting DateMajor Shareholder NameShares HeldMarket Value% of PortfolioQuarterly Change in SharesOwnership in CompanyDetails
5/5/2026Sanctuary Advisors LLC15,211$1.19M0.0%+42.1%0.006%
5/4/2026Principal Financial Group Inc.1,518,828$118.59M0.1%+14.4%0.606%
5/1/2026 Fifth Third Bancorp2,198$172K0.0%+73,166.7%0.001%
5/1/2026 Sequoia Financial Advisors LLC6,824$533K0.0%+43.2%0.003%
4/30/2026 Hsbc Holdings PLC8,570$669K0.0%-14.2%0.003%
4/30/2026 Frank Rimerman Advisors LLC6,706$524K0.0%+6.6%0.003%
4/28/2026 QRG Capital Management Inc.3,441$269K0.0%+3.9%0.001%
4/22/2026 Janney Montgomery Scott LLC22,507$1.76M0.0%+1.0%0.009%
4/22/2026 Sterling Capital Management LLC575$45K0.0%-41.1%0.000%
4/16/2026 SG Americas Securities LLC1,354$106K0.0%-55.5%0.001%
4/16/2026 Sprinkle Financial Consultants LLC3,412$266K0.1%N/A0.001%
3/20/2026 Hsbc Holdings PLC9,992$893K0.0%+51.9%0.004%
3/17/2026Rockefeller Capital Management L.P.5,476$489K0.0%+4.7%0.002%
2/27/2026 Cross Staff Investments Inc1,225$109K0.1%N/A0.000%
2/26/2026Aristides Capital LLC6,838$611K0.1%+4.1%0.003%
2/23/2026Virtu Financial LLC13,681$1.22M0.0%-30.2%0.005%
2/18/2026Mercer Global Advisors Inc. ADV7,203$644K0.0%+8.1%0.003%
2/18/2026KKM Financial LLC207,502$18.55M3.3%N/A0.083%
2/18/2026Voloridge Investment Management LLC14,325$1.28M0.0%-13.5%0.006%
2/18/2026Symmetry Investments LP50,890$4.55M0.4%+24.5%0.020%
2/18/2026Occudo Quantitative Strategies LP3,870$346K0.0%-62.0%0.002%
2/18/2026Millennium Management LLC60,560$5.41M0.0%-99.8%0.024%
2/18/2026Janus Henderson Group PLC995,541$88.98M0.0%+2.1%0.398%
2/18/2026Engineers Gate Manager LP4,584$410K0.0%N/A0.002%
2/18/2026First Manhattan CO. LLC.28,153$2.52M0.0%+803.2%0.011%
2/18/2026Balyasny Asset Management L.P.23,920$2.14M0.0%-11.6%0.010%
2/18/2026Bamco Inc. NY311,588$27.85M0.1%-1.9%0.125%
2/17/2026Hawk Ridge Capital Management LP299,800$26.80M1.2%+90.9%0.120%
2/17/2026AQR Capital Management LLC7,805$696K0.0%+3.4%0.003%
2/17/2026Cetera Investment Advisers3,450$308K0.0%+13.4%0.001%
2/17/2026ArrowMark Colorado Holdings LLC21,669$1.94M0.0%-5.1%0.009%
2/17/2026Amundi71,214$6.37M0.0%+420.4%0.028%
2/17/2026Price T Rowe Associates Inc. MD29,232$2.61M0.0%+3.2%0.012%
2/17/2026Bislett Management LLC70,000$6.26M4.7%-12.5%0.028%
2/17/2026Public Employees Retirement System of Ohio6,898$617K0.0%-3.7%0.003%
2/17/2026&PARTNERS3,345$299K0.0%-72.8%0.001%
2/17/2026Mangrove Partners IM LLC11,243$1.01M0.1%N/A0.004%
2/17/2026Graham Capital Management L.P.7,963$712K0.0%+19.8%0.003%
2/16/2026Landscape Capital Management L.L.C.48,319$4.32M0.3%-35.6%0.019%
2/13/2026 Kestra Advisory Services LLC1,003$90K0.0%N/A0.000%
2/13/2026The Manufacturers Life Insurance Company 145,896$13.04M0.0%-1.1%0.058%
2/13/2026Soros Fund Management LLC10,200$912K0.0%N/A0.004%
2/13/2026Boyar Asset Management Inc.8,263$739K0.5%N/A0.003%
2/13/2026Stifel Financial Corp6,020$538K0.0%+24.4%0.002%
2/13/2026Schroder Investment Management Group6,508$581K0.0%-13.9%0.003%
2/13/2026First Trust Advisors LP2,523$226K0.0%N/A0.001%
2/13/2026State Street Corp348,835$31.18M0.0%-0.5%0.140%
2/13/2026 Royal London Asset Management Ltd.8,183$731K0.0%+18.0%0.003%
2/13/2026UBS AM a distinct business unit of UBS ASSET MANAGEMENT AMERICAS LLC20,918$1.87M0.0%+2.7%0.008%
2/13/2026Wells Fargo & Company MN109,219$9.76M0.0%+37.1%0.044%
2/13/2026Ruane Cunniff & Goldfarb L.P.738,880$66.04M1.0%-0.5%0.295%
2/12/2026HRT Financial LP5,158$461K0.0%-83.6%0.002%
2/12/2026Aristides Capital LLC6,838$611K0.1%+4.1%0.003%
2/12/2026State Board of Administration of Florida Retirement System28,793$2.57M0.0%-16.9%0.012%
2/12/2026Renaissance Technologies LLC280,522$25.07M0.0%-12.1%0.112%
2/12/2026CIBC Private Wealth Group LLC909$81K0.0%-41.4%0.000%
2/12/2026 Nuveen LLC44,491$3.98M0.0%+4.1%0.018%
2/11/2026 Janney Montgomery Scott LLC22,294$1.99M0.0%+1.4%0.009%
2/11/2026Horizon Kinetics Asset Management LLC36,018$3.22M0.0%-4.6%0.014%
2/11/2026LPL Financial LLC13,829$1.24M0.0%-3.7%0.006%
2/11/2026Manchester Capital Management LLC4,624$413K0.1%-11.1%0.002%
2/11/2026Clearbridge Investments LLC139,342$12.45M0.0%-2.0%0.056%
2/11/2026Deltroit Asset Management UK LLP51,571$4.61M0.7%N/A0.021%
2/11/2026Highbridge Capital Management LLC227,221$20.31M0.7%-30.0%0.091%
2/11/2026 Vise Technologies Inc.5,919$529K0.0%+42.9%0.002%
2/11/2026State of Wyoming875$78K0.0%N/A0.000%
2/10/2026Elgethun Capital Management147,490$13.18M2.3%+1.9%0.059%
2/10/2026Goldman Sachs Group Inc.77,834$6.96M0.0%-10.2%0.031%
2/10/2026Natixis Advisors LLC15,165$1.36M0.0%+51.3%0.006%
2/10/2026Norges Bank1,011,778$90.43M0.0%N/A0.405%
2/10/2026Eurizon Capital SGR S.p.A.3,266$292K0.0%N/A0.001%
2/9/2026Geode Capital Management LLC445,169$39.81M0.0%-2.5%0.178%
2/9/2026Roundview Capital LLC33,983$3.04M0.2%-0.6%0.014%
2/9/2026Legal & General Group Plc43,098$3.85M0.0%-14.3%0.017%
2/6/2026Global Retirement Partners LLC490$44K0.0%+311.8%0.000%
2/6/2026HighTower Advisors LLC3,485$311K0.0%N/A0.001%
2/5/2026 TD Private Client Wealth LLC532$48K0.0%+64.7%0.000%
2/5/2026Gamco Investors INC. ET AL108,941$9.74M0.1%+1.5%0.044%
2/5/2026Gabelli Funds LLC129,750$11.60M0.1%+16.6%0.052%
2/5/2026S&CO Inc.67,239$6.01M0.4%-0.3%0.027%
2/5/2026Northwestern Mutual Wealth Management Co.36,080$3.23M0.0%+10,150.0%0.014%
2/5/2026 Pinnacle Associates Ltd.116,496$10.41M0.1%-0.4%0.047%
2/3/2026 Sequoia Financial Advisors LLC4,765$426K0.0%+12.5%0.002%
2/3/2026Gallacher Capital Management LLC4,308$385K0.1%+7.1%0.002%
2/2/2026Principal Financial Group Inc.1,327,209$118.63M0.1%+34.1%0.531%
1/30/2026M&T Bank Corp3,333$298K0.0%-3.9%0.001%
1/29/2026UBS Group AG130,375$11.65M0.0%+11.4%0.052%
1/29/2026Sanctuary Advisors LLC10,701$956K0.0%+25.9%0.004%
1/29/2026Vanguard Group Inc.2,112,263$188.79M0.0%+0.1%0.845%
1/28/2026Paradice Investment Management LLC2,830$253K0.0%-8.1%0.001%
1/28/2026M&T Bank Corp32,880$2.94M0.0%+848.4%0.013%
1/27/2026TD Waterhouse Canada Inc.300$27K0.0%+100.0%0.000%
1/26/2026 Moran Wealth Management LLC2,311$207K0.0%-26.8%0.001%
1/23/2026 Third View Private Wealth LLC4,599$411K0.1%N/A0.002%
1/21/2026 Oak Thistle LLC4,723$422K0.1%N/A0.002%
1/20/2026Savvy Advisors Inc.2,625$235K0.0%N/A0.001%
1/16/2026 FNY Investment Advisers LLC320$28K0.0%-40.7%0.000%
1/15/2026 Frank Rimerman Advisors LLC6,292$562K0.0%+72.5%0.003%
1/9/2026 SG Americas Securities LLC3,044$272K0.0%-53.8%0.001%
1/8/2026 Wealth Enhancement Advisory Services LLC10,614$937K0.0%+1.1%0.004%


FWONA Institutional Ownership - Frequently Asked Questions

Who are the largest shareholders of FWONA shares?

During the previous two years, 154 institutional investors and hedge funds held shares of Liberty Media Corporation - Liberty Formula One Series A. The most heavily invested institutionals were Vanguard Group Inc. ($188.79M), Principal Financial Group Inc. ($118.59M), Norges Bank ($90.43M), Janus Henderson Group PLC ($88.98M), Sculptor Capital LP ($71.22M), Ruane Cunniff & Goldfarb L.P. ($66.04M), and Geode Capital Management LLC ($39.81M).Learn more on Liberty Media Corporation - Liberty Formula One Series A's institutional investors.

What percentage of Liberty Media Corporation - Liberty Formula One Series A's stock is owned by institutional investors?

8.38% of Liberty Media Corporation - Liberty Formula One Series A's stock is owned by institutional investors. Learn more on FWONA's institutional investor holdings.

Which institutional investors have been buying Liberty Media Corporation - Liberty Formula One Series A's stock?

Of the 116 institutional investors that purchased Liberty Media Corporation - Liberty Formula One Series A's stock in the last 24 months, the following investors and hedge funds have bought the highest volume of shares: Norges Bank ($2.02M), Principal Financial Group Inc. ($631.81K), Hawk Ridge Capital Management LP ($299.80K), KKM Financial LLC ($207.50K), Credit Industriel ET Commercial ($80.70K), Highbridge Capital Management LLC ($79.41K), and Cooper Investors PTY Ltd. ($67.40K).

How much institutional buying is happening at Liberty Media Corporation - Liberty Formula One Series A?

Institutional investors have bought a total of 4,193,255 shares in the last 24 months. This purchase volume represents approximately $382.78M in transactions.

Which of Liberty Media Corporation - Liberty Formula One Series A's major shareholders have been selling company stock?

Of the 70 institutional investors that sold Liberty Media Corporation - Liberty Formula One Series A's stock in the last 24 months, the following investors and hedge funds have sold the highest volume of shares: Millennium Management LLC ($24.54M), Highbridge Capital Management LLC ($137.78K), Vanguard Group Inc. ($102.40K), Geode Capital Management LLC ($84.66K), Renaissance Technologies LLC ($38.50K), Strs Ohio ($26.86K), and Landscape Capital Management L.L.C. ($26.76K).

How much institutional selling is happening at Liberty Media Corporation - Liberty Formula One Series A?

Institutional investors have sold a total of 25,209,994 shares in the last 24 months. This volume of shares sold represents approximately $2.26B in transactions.



This page (NASDAQ:FWONA) was last updated on 5/5/2026 by MarketBeat.com Staff.
From Our Partners